Statia Express — V7TT3 — position and weather

sailwx.info

Track history (hours):
 
Tides and Currents Weather Stations Pressure Air Temp Water Temp Dewpoint Dewpoint Depression Visibility Wind Speed Wind Dir Waves Ship Positions

Statia Express

Last reported at 2017-Aug-15 00:33 UTC. Time now 2017-Aug-17 09:51 UTC.
Position N 17°45' W 063°03'.

Length 28 m; draft 3.9 m.

Type: Tug. MMSI: 538003879.

Date/timePositionNaut miles runAvg speedWind from/ knotsBaromVisibWave heightAir tempDewpointWater temp
2017-Aug-15 00:33N 17°45' W 063°03'1 5.0
2017-Aug-15 00:25N 17°45' W 063°03'2 5.2
2017-Aug-14 23:58N 17°48' W 063°03'2 5.1
2017-Aug-14 23:30N 17°50' W 063°03'3 5.2
2017-Aug-14 23:00N 17°53' W 063°04'3 5.2
2017-Aug-14 22:29N 17°55' W 063°04'2 5.2
2017-Aug-14 22:01N 17°58' W 063°04'3 5.0
2017-Aug-14 21:28N 18°00' W 063°05'1 1.7
2017-Aug-14 20:59N 18°01' W 063°05'0 0.2
2017-Aug-14 20:31N 18°01' W 063°05'0 0.0
2017-Aug-14 19:54N 18°01' W 063°05'0 0.0
2017-Aug-14 19:27N 18°01' W 063°05'0 0.0
2017-Aug-14 18:57N 18°01' W 063°05'0 0.0
2017-Aug-14 18:28N 18°01' W 063°05'0 0.0
2017-Aug-14 18:01N 18°01' W 063°05'0 0.0
2017-Aug-14 17:24N 18°01' W 063°05'0 0.1
2017-Aug-14 16:59N 18°01' W 063°05'0 0.0
2017-Aug-14 16:25N 18°01' W 063°05'0 0.0
2017-Aug-14 15:55N 18°01' W 063°05'0 0.0
2017-Aug-14 13:21N 18°01' W 063°05'0 0.0
2017-Aug-14 12:58N 18°01' W 063°05'0 0.0
2017-Aug-14 12:25N 18°01' W 063°05'0 0.0
2017-Aug-14 11:59N 18°01' W 063°05'0 0.0
2017-Aug-14 11:09N 18°01' W 063°05'0 0.0
2017-Aug-14 10:56N 18°01' W 063°05'0 0.3
2017-Aug-14 10:26N 18°01' W 063°05'2 0.2
2017-Aug-13 23:17N 18°01' W 063°03'0 0.0
2017-Aug-13 17:02N 18°01' W 063°03'0 2.1
2017-Aug-13 17:00N 18°01' W 063°03'1 0.9
2017-Aug-13 16:22N 18°00' W 063°03'0 0.0
2017-Aug-13 15:55N 18°00' W 063°03'0 0.0
2017-Aug-13 12:13N 18°00' W 063°03'0 0.0
2017-Aug-13 11:56N 18°00' W 063°03'0 0.0
2017-Aug-13 11:30N 18°00' W 063°03'0 0.0
2017-Aug-13 10:56N 18°00' W 063°03'1 0.2
2017-Aug-13 08:01N 18°01' W 063°03'0 0.0
2017-Aug-13 07:44N 18°01' W 063°03'0 0.0
2017-Aug-13 06:34N 18°01' W 063°03'0 0.0
2017-Aug-13 06:28N 18°01' W 063°03'0 0.0
2017-Aug-13 05:31N 18°01' W 063°03'0 0.4
2017-Aug-13 05:05N 18°01' W 063°03'0 1.3
2017-Aug-13 04:54N 18°00' W 063°03'1 3.4
2017-Aug-13 04:29N 17°59' W 063°04'2 4.0
2017-Aug-13 04:00N 17°57' W 063°04'3 5.1
2017-Aug-13 03:30N 17°55' W 063°03'3 5.3
2017-Aug-13 03:00N 17°52' W 063°03'7 0.1
2017-Aug-11 00:34N 17°45' W 063°04'1 6.3
2017-Aug-11 00:28N 17°46' W 063°04'3 6.1
2017-Aug-11 00:00N 17°48' W 063°04'3 6.0
2017-Aug-10 23:27N 17°52' W 063°05'3 5.9
2017-Aug-10 23:00N 17°54' W 063°05'3 5.5
2017-Aug-10 22:30N 17°57' W 063°06'3 5.2
2017-Aug-10 22:00N 17°59' W 063°05'2 3.3
2017-Aug-10 21:23N 18°01' W 063°03'  
Track history (hours):
 
Tides and Currents Weather Stations Pressure Air Temp Water Temp Dewpoint Dewpoint Depression Visibility Wind Speed Wind Dir Waves Ship Positions

Statia Express

Last reported at 2017-Aug-15 00:33 UTC. Time now 2017-Aug-17 09:51 UTC.
Position N 17°45' W 063°03'.

Length 28 m; draft 3.9 m.

Type: Tug. MMSI: 538003879.

Date/timePositionNaut miles runAvg speedWind from/ knotsBaromVisibWave heightAir tempDewpointWater temp
2017-Aug-15 00:33N 17°45' W 063°03'1 5.0
2017-Aug-15 00:25N 17°45' W 063°03'2 5.2
2017-Aug-14 23:58N 17°48' W 063°03'2 5.1
2017-Aug-14 23:30N 17°50' W 063°03'3 5.2
2017-Aug-14 23:00N 17°53' W 063°04'3 5.2
2017-Aug-14 22:29N 17°55' W 063°04'2 5.2
2017-Aug-14 22:01N 17°58' W 063°04'3 5.0
2017-Aug-14 21:28N 18°00' W 063°05'1 1.7
2017-Aug-14 20:59N 18°01' W 063°05'0 0.2
2017-Aug-14 20:31N 18°01' W 063°05'0 0.0
2017-Aug-14 19:54N 18°01' W 063°05'0 0.0
2017-Aug-14 19:27N 18°01' W 063°05'0 0.0
2017-Aug-14 18:57N 18°01' W 063°05'0 0.0
2017-Aug-14 18:28N 18°01' W 063°05'0 0.0
2017-Aug-14 18:01N 18°01' W 063°05'0 0.0
2017-Aug-14 17:24N 18°01' W 063°05'0 0.1
2017-Aug-14 16:59N 18°01' W 063°05'0 0.0
2017-Aug-14 16:25N 18°01' W 063°05'0 0.0
2017-Aug-14 15:55N 18°01' W 063°05'0 0.0
2017-Aug-14 13:21N 18°01' W 063°05'0 0.0
2017-Aug-14 12:58N 18°01' W 063°05'0 0.0
2017-Aug-14 12:25N 18°01' W 063°05'0 0.0
2017-Aug-14 11:59N 18°01' W 063°05'0 0.0
2017-Aug-14 11:09N 18°01' W 063°05'0 0.0
2017-Aug-14 10:56N 18°01' W 063°05'0 0.3
2017-Aug-14 10:26N 18°01' W 063°05'2 0.2
2017-Aug-13 23:17N 18°01' W 063°03'0 0.0
2017-Aug-13 17:02N 18°01' W 063°03'0 2.1
2017-Aug-13 17:00N 18°01' W 063°03'1 0.9
2017-Aug-13 16:22N 18°00' W 063°03'0 0.0
2017-Aug-13 15:55N 18°00' W 063°03'0 0.0
2017-Aug-13 12:13N 18°00' W 063°03'0 0.0
2017-Aug-13 11:56N 18°00' W 063°03'0 0.0
2017-Aug-13 11:30N 18°00' W 063°03'0 0.0
2017-Aug-13 10:56N 18°00' W 063°03'1 0.2
2017-Aug-13 08:01N 18°01' W 063°03'0 0.0
2017-Aug-13 07:44N 18°01' W 063°03'0 0.0
2017-Aug-13 06:34N 18°01' W 063°03'0 0.0
2017-Aug-13 06:28N 18°01' W 063°03'0 0.0
2017-Aug-13 05:31N 18°01' W 063°03'0 0.4
2017-Aug-13 05:05N 18°01' W 063°03'0 1.3
2017-Aug-13 04:54N 18°00' W 063°03'1 3.4
2017-Aug-13 04:29N 17°59' W 063°04'2 4.0
2017-Aug-13 04:00N 17°57' W 063°04'3 5.1
2017-Aug-13 03:30N 17°55' W 063°03'3 5.3
2017-Aug-13 03:00N 17°52' W 063°03'7 0.1
2017-Aug-11 00:34N 17°45' W 063°04'1 6.3
2017-Aug-11 00:28N 17°46' W 063°04'3 6.1
2017-Aug-11 00:00N 17°48' W 063°04'3 6.0
2017-Aug-10 23:27N 17°52' W 063°05'3 5.9
2017-Aug-10 23:00N 17°54' W 063°05'3 5.5
2017-Aug-10 22:30N 17°57' W 063°06'3 5.2
2017-Aug-10 22:00N 17°59' W 063°05'2 3.3
2017-Aug-10 21:23N 18°01' W 063°03'  

Dump ship's entire track history